sensor_id;sensor_type;location;lat;lon;timestamp;pressure;altitude;pressure_sealevel;temperature;humidity
63190;BME280;49286;44.460;26.114;2023-09-08T00:00:36;101084.22;;;19.78;100.00
63190;BME280;49286;44.460;26.114;2023-09-08T00:03:01;101076.50;;;19.67;100.00
63190;BME280;49286;44.460;26.114;2023-09-08T00:05:28;101079.59;;;19.85;100.00
63190;BME280;49286;44.460;26.114;2023-09-08T00:07:53;101089.38;;;19.84;100.00
63190;BME280;49286;44.460;26.114;2023-09-08T00:10:19;101033.41;;;19.53;100.00
63190;BME280;49286;44.460;26.114;2023-09-08T00:12:44;100967.16;;;19.09;100.00
63190;BME280;49286;44.460;26.114;2023-09-08T00:15:10;100956.84;;;18.97;100.00
63190;BME280;49286;44.460;26.114;2023-09-08T00:17:35;100983.22;;;19.05;100.00
63190;BME280;49286;44.460;26.114;2023-09-08T00:20:02;100963.22;;;18.90;100.00
63190;BME280;49286;44.460;26.114;2023-09-08T00:22:32;101086.59;;;19.54;100.00
63190;BME280;49286;44.460;26.114;2023-09-08T00:24:58;101003.53;;;19.09;100.00
63190;BME280;49286;44.460;26.114;2023-09-08T00:27:23;101020.09;;;19.20;100.00
63190;BME280;49286;44.460;26.114;2023-09-08T00:29:49;101084.78;;;19.56;100.00
63190;BME280;49286;44.460;26.114;2023-09-08T00:32:15;101056.91;;;19.37;100.00
63190;BME280;49286;44.460;26.114;2023-09-08T00:34:41;100981.56;;;19.01;100.00
63190;BME280;49286;44.460;26.114;2023-09-08T00:37:06;101084.97;;;19.49;100.00
63190;BME280;49286;44.460;26.114;2023-09-08T00:39:35;100985.03;;;19.04;100.00
63190;BME280;49286;44.460;26.114;2023-09-08T00:42:01;100990.38;;;19.03;100.00
63190;BME280;49286;44.460;26.114;2023-09-08T00:44:26;101074.81;;;19.65;100.00
63190;BME280;49286;44.460;26.114;2023-09-08T00:46:52;101071.47;;;19.56;100.00
63190;BME280;49286;44.460;26.114;2023-09-08T00:49:17;100992.03;;;19.07;100.00
63190;BME280;49286;44.460;26.114;2023-09-08T00:51:43;101071.66;;;19.49;100.00
63190;BME280;49286;44.460;26.114;2023-09-08T00:54:08;101063.59;;;19.52;100.00
63190;BME280;49286;44.460;26.114;2023-09-08T00:56:36;101073.41;;;19.50;100.00
63190;BME280;49286;44.460;26.114;2023-09-08T00:59:02;100994.84;;;19.01;100.00
63190;BME280;49286;44.460;26.114;2023-09-08T01:01:28;101064.03;;;19.35;100.00
63190;BME280;49286;44.460;26.114;2023-09-08T01:03:54;101077.09;;;19.46;100.00
63190;BME280;49286;44.460;26.114;2023-09-08T01:06:20;101063.13;;;19.36;100.00
63190;BME280;49286;44.460;26.114;2023-09-08T01:08:46;101013.19;;;19.13;100.00
63190;BME280;49286;44.460;26.114;2023-09-08T01:11:12;101064.56;;;19.49;100.00
63190;BME280;49286;44.460;26.114;2023-09-08T01:13:38;101050.34;;;19.50;100.00
63190;BME280;49286;44.460;26.114;2023-09-08T01:16:03;100986.16;;;18.94;100.00
63190;BME280;49286;44.460;26.114;2023-09-08T01:18:29;100968.81;;;18.79;100.00
63190;BME280;49286;44.460;26.114;2023-09-08T01:21:52;101059.34;;;19.45;100.00
63190;BME280;49286;44.460;26.114;2023-09-08T01:27:01;101065.84;;;19.34;100.00
63190;BME280;49286;44.460;26.114;2023-09-08T01:29:28;101063.91;;;19.41;100.00
63190;BME280;49286;44.460;26.114;2023-09-08T01:31:55;101069.25;;;19.39;100.00
63190;BME280;49286;44.460;26.114;2023-09-08T01:34:22;101000.06;;;19.05;100.00
63190;BME280;49286;44.460;26.114;2023-09-08T01:36:47;100982.81;;;18.86;100.00
63190;BME280;49286;44.460;26.114;2023-09-08T01:39:13;101049.13;;;19.29;100.00
63190;BME280;49286;44.460;26.114;2023-09-08T01:41:38;101027.47;;;19.09;100.00
63190;BME280;49286;44.460;26.114;2023-09-08T01:44:04;101063.94;;;19.38;100.00
63190;BME280;49286;44.460;26.114;2023-09-08T01:46:34;100977.72;;;18.78;100.00
63190;BME280;49286;44.460;26.114;2023-09-08T01:48:59;101046.09;;;19.09;100.00
63190;BME280;49286;44.460;26.114;2023-09-08T01:51:25;100984.88;;;18.73;100.00
63190;BME280;49286;44.460;26.114;2023-09-08T01:53:50;101073.41;;;19.15;100.00
63190;BME280;49286;44.460;26.114;2023-09-08T01:56:15;100994.91;;;18.62;100.00
63190;BME280;49286;44.460;26.114;2023-09-08T01:58:41;101077.91;;;19.12;100.00
63190;BME280;49286;44.460;26.114;2023-09-08T02:01:06;101075.38;;;19.07;100.00
63190;BME280;49286;44.460;26.114;2023-09-08T02:03:32;100985.25;;;18.58;100.00
63190;BME280;49286;44.460;26.114;2023-09-08T02:05:58;101069.91;;;19.13;100.00
63190;BME280;49286;44.460;26.114;2023-09-08T02:08:23;101061.75;;;18.85;100.00
63190;BME280;49286;44.460;26.114;2023-09-08T02:10:49;100987.41;;;18.40;100.00
63190;BME280;49286;44.460;26.114;2023-09-08T02:13:14;100978.44;;;18.46;100.00
63190;BME280;49286;44.460;26.114;2023-09-08T02:15:40;100990.88;;;18.45;100.00
63190;BME280;49286;44.460;26.114;2023-09-08T02:18:06;101089.88;;;18.94;100.00
63190;BME280;49286;44.460;26.114;2023-09-08T02:20:32;100998.88;;;18.44;100.00
63190;BME280;49286;44.460;26.114;2023-09-08T02:22:58;101081.31;;;18.83;100.00
63190;BME280;49286;44.460;26.114;2023-09-08T02:25:29;101003.22;;;18.48;100.00
63190;BME280;49286;44.460;26.114;2023-09-08T02:27:54;100983.22;;;18.30;100.00
63190;BME280;49286;44.460;26.114;2023-09-08T02:30:20;100969.94;;;18.30;100.00
63190;BME280;49286;44.460;26.114;2023-09-08T02:32:45;100988.66;;;18.25;100.00
63190;BME280;49286;44.460;26.114;2023-09-08T02:35:10;100994.84;;;18.26;100.00
63190;BME280;49286;44.460;26.114;2023-09-08T02:37:36;100994.78;;;18.29;100.00
63190;BME280;49286;44.460;26.114;2023-09-08T02:40:02;101056.72;;;18.71;100.00
63190;BME280;49286;44.460;26.114;2023-09-08T02:42:28;101061.38;;;18.62;100.00
63190;BME280;49286;44.460;26.114;2023-09-08T02:44:54;101074.09;;;18.88;100.00
63190;BME280;49286;44.460;26.114;2023-09-08T02:47:19;101087.41;;;18.86;100.00
63190;BME280;49286;44.460;26.114;2023-09-08T02:49:45;100975.44;;;18.22;100.00
63190;BME280;49286;44.460;26.114;2023-09-08T02:52:10;100983.38;;;18.24;100.00
63190;BME280;49286;44.460;26.114;2023-09-08T02:54:36;101016.91;;;18.29;100.00
63190;BME280;49286;44.460;26.114;2023-09-08T02:57:01;101087.78;;;18.69;100.00
63190;BME280;49286;44.460;26.114;2023-09-08T02:59:27;101081.44;;;18.76;100.00
63190;BME280;49286;44.460;26.114;2023-09-08T03:01:52;100974.72;;;18.16;100.00
63190;BME280;49286;44.460;26.114;2023-09-08T03:04:18;101091.94;;;18.83;100.00
63190;BME280;49286;44.460;26.114;2023-09-08T03:06:43;101085.91;;;18.73;100.00
63190;BME280;49286;44.460;26.114;2023-09-08T03:09:08;101055.31;;;18.55;100.00
63190;BME280;49286;44.460;26.114;2023-09-08T03:11:34;100996.06;;;18.11;100.00
63190;BME280;49286;44.460;26.114;2023-09-08T03:14:00;100981.94;;;18.07;100.00
63190;BME280;49286;44.460;26.114;2023-09-08T03:16:25;100983.72;;;18.08;100.00
63190;BME280;49286;44.460;26.114;2023-09-08T03:18:50;100978.47;;;18.05;100.00
63190;BME280;49286;44.460;26.114;2023-09-08T03:21:16;101009.94;;;18.24;100.00
63190;BME280;49286;44.460;26.114;2023-09-08T03:23:45;100979.25;;;18.10;100.00
63190;BME280;49286;44.460;26.114;2023-09-08T03:26:11;101003.91;;;18.17;100.00
63190;BME280;49286;44.460;26.114;2023-09-08T03:28:37;101095.81;;;18.66;100.00
63190;BME280;49286;44.460;26.114;2023-09-08T03:31:04;101000.22;;;18.23;100.00
63190;BME280;49286;44.460;26.114;2023-09-08T03:33:30;101093.94;;;18.71;100.00
63190;BME280;49286;44.460;26.114;2023-09-08T03:35:55;101028.50;;;18.25;100.00
63190;BME280;49286;44.460;26.114;2023-09-08T03:38:21;101060.09;;;18.38;100.00
63190;BME280;49286;44.460;26.114;2023-09-08T03:40:47;101067.00;;;18.46;100.00
63190;BME280;49286;44.460;26.114;2023-09-08T03:43:13;101094.22;;;18.58;100.00
63190;BME280;49286;44.460;26.114;2023-09-08T03:45:38;101087.16;;;18.56;100.00
63190;BME280;49286;44.460;26.114;2023-09-08T03:48:04;101073.38;;;18.39;100.00
63190;BME280;49286;44.460;26.114;2023-09-08T03:50:30;101006.00;;;18.01;100.00
63190;BME280;49286;44.460;26.114;2023-09-08T03:52:55;101048.03;;;18.24;100.00
63190;BME280;49286;44.460;26.114;2023-09-08T03:55:21;101083.81;;;18.47;100.00
63190;BME280;49286;44.460;26.114;2023-09-08T03:57:46;101018.16;;;18.11;100.00
63190;BME280;49286;44.460;26.114;2023-09-08T04:00:13;101043.56;;;18.26;100.00
63190;BME280;49286;44.460;26.114;2023-09-08T04:02:44;101079.47;;;18.44;100.00
63190;BME280;49286;44.460;26.114;2023-09-08T04:05:10;101110.06;;;18.64;100.00
63190;BME280;49286;44.460;26.114;2023-09-08T04:07:36;101103.94;;;18.59;100.00
63190;BME280;49286;44.460;26.114;2023-09-08T04:10:02;101012.09;;;18.06;100.00
63190;BME280;49286;44.460;26.114;2023-09-08T04:12:28;101113.38;;;18.73;100.00
63190;BME280;49286;44.460;26.114;2023-09-08T04:14:53;101066.03;;;18.50;100.00
63190;BME280;49286;44.460;26.114;2023-09-08T04:17:19;101022.34;;;18.23;100.00
63190;BME280;49286;44.460;26.114;2023-09-08T04:19:44;101124.63;;;18.88;100.00
63190;BME280;49286;44.460;26.114;2023-09-08T04:22:10;101029.16;;;18.35;100.00
63190;BME280;49286;44.460;26.114;2023-09-08T04:24:36;101079.03;;;18.64;100.00
63190;BME280;49286;44.460;26.114;2023-09-08T04:27:02;101112.91;;;18.95;100.00
63190;BME280;49286;44.460;26.114;2023-09-08T04:29:28;101009.69;;;18.34;100.00
63190;BME280;49286;44.460;26.114;2023-09-08T04:31:53;101130.47;;;19.02;100.00
63190;BME280;49286;44.460;26.114;2023-09-08T04:34:18;101097.94;;;18.91;100.00
63190;BME280;49286;44.460;26.114;2023-09-08T04:36:44;101120.69;;;19.04;100.00
63190;BME280;49286;44.460;26.114;2023-09-08T04:39:09;101058.41;;;18.75;100.00
63190;BME280;49286;44.460;26.114;2023-09-08T04:41:37;101143.25;;;19.25;100.00
63190;BME280;49286;44.460;26.114;2023-09-08T04:44:02;101130.94;;;19.19;100.00
63190;BME280;49286;44.460;26.114;2023-09-08T04:46:28;101144.66;;;19.38;100.00
63190;BME280;49286;44.460;26.114;2023-09-08T04:48:54;101137.63;;;19.36;100.00
63190;BME280;49286;44.460;26.114;2023-09-08T04:51:19;101125.16;;;19.38;100.00
63190;BME280;49286;44.460;26.114;2023-09-08T04:53:44;101134.81;;;19.44;100.00
63190;BME280;49286;44.460;26.114;2023-09-08T04:56:11;101043.66;;;19.00;100.00
63190;BME280;49286;44.460;26.114;2023-09-08T04:58:37;101062.66;;;19.20;100.00
63190;BME280;49286;44.460;26.114;2023-09-08T05:01:03;101045.78;;;19.19;100.00
63190;BME280;49286;44.460;26.114;2023-09-08T05:03:28;101156.69;;;19.91;100.00
63190;BME280;49286;44.460;26.114;2023-09-08T05:05:55;101146.91;;;19.91;100.00
63190;BME280;49286;44.460;26.114;2023-09-08T05:08:21;101052.31;;;19.42;100.00
63190;BME280;49286;44.460;26.114;2023-09-08T05:10:46;101141.44;;;19.96;100.00
63190;BME280;49286;44.460;26.114;2023-09-08T05:13:12;101085.31;;;19.71;100.00
63190;BME280;49286;44.460;26.114;2023-09-08T05:15:39;101137.47;;;20.11;100.00
63190;BME280;49286;44.460;26.114;2023-09-08T05:18:05;101066.72;;;19.69;100.00
63190;BME280;49286;44.460;26.114;2023-09-08T05:20:30;101153.88;;;20.28;100.00
63190;BME280;49286;44.460;26.114;2023-09-08T05:22:56;101158.00;;;20.40;100.00
63190;BME280;49286;44.460;26.114;2023-09-08T05:25:21;101146.78;;;20.27;100.00
63190;BME280;49286;44.460;26.114;2023-09-08T05:27:47;101141.47;;;20.27;100.00
63190;BME280;49286;44.460;26.114;2023-09-08T05:30:14;101174.59;;;20.50;100.00
63190;BME280;49286;44.460;26.114;2023-09-08T05:32:40;101164.06;;;20.76;100.00
63190;BME280;49286;44.460;26.114;2023-09-08T05:35:06;101128.47;;;21.05;100.00
63190;BME280;49286;44.460;26.114;2023-09-08T05:37:31;101074.72;;;20.90;100.00
63190;BME280;49286;44.460;26.114;2023-09-08T05:39:57;101088.50;;;21.31;100.00
63190;BME280;49286;44.460;26.114;2023-09-08T05:42:22;101169.69;;;22.30;100.00
63190;BME280;49286;44.460;26.114;2023-09-08T05:44:48;101160.22;;;22.20;98.83
63190;BME280;49286;44.460;26.114;2023-09-08T05:47:14;101167.31;;;22.46;96.61
63190;BME280;49286;44.460;26.114;2023-09-08T05:49:39;101085.97;;;22.03;93.59
63190;BME280;49286;44.460;26.114;2023-09-08T05:52:05;101174.53;;;22.44;90.35
63190;BME280;49286;44.460;26.114;2023-09-08T05:54:30;101114.47;;;22.04;90.24
63190;BME280;49286;44.460;26.114;2023-09-08T05:56:56;101093.03;;;21.55;93.75
63190;BME280;49286;44.460;26.114;2023-09-08T05:59:21;101159.50;;;22.14;93.60
63190;BME280;49286;44.460;26.114;2023-09-08T06:01:47;101059.84;;;21.87;90.28
63190;BME280;49286;44.460;26.114;2023-09-08T06:04:12;101124.66;;;22.18;86.25
63190;BME280;49286;44.460;26.114;2023-09-08T06:06:38;101154.41;;;22.81;84.93
63190;BME280;49286;44.460;26.114;2023-09-08T06:09:05;101090.28;;;22.07;84.53
63190;BME280;49286;44.460;26.114;2023-09-08T06:11:31;101101.63;;;22.39;85.51
63190;BME280;49286;44.460;26.114;2023-09-08T06:13:57;101180.25;;;22.80;84.18
63190;BME280;49286;44.460;26.114;2023-09-08T06:16:25;101185.25;;;23.13;80.59
63190;BME280;49286;44.460;26.114;2023-09-08T06:18:50;101099.94;;;22.82;80.42
63190;BME280;49286;44.460;26.114;2023-09-08T06:21:16;101109.03;;;22.05;82.68
63190;BME280;49286;44.460;26.114;2023-09-08T06:23:41;101104.25;;;21.38;87.01
63190;BME280;49286;44.460;26.114;2023-09-08T06:26:07;101108.00;;;21.33;90.34
63190;BME280;49286;44.460;26.114;2023-09-08T06:28:32;101177.59;;;21.81;91.54
63190;BME280;49286;44.460;26.114;2023-09-08T06:30:58;101164.75;;;21.92;90.81
63190;BME280;49286;44.460;26.114;2023-09-08T06:33:23;101087.00;;;21.75;88.29
63190;BME280;49286;44.460;26.114;2023-09-08T06:35:49;101146.91;;;22.18;87.65
63190;BME280;49286;44.460;26.114;2023-09-08T06:38:14;101201.88;;;22.00;93.62
63190;BME280;49286;44.460;26.114;2023-09-08T06:40:40;101097.97;;;21.41;93.13
63190;BME280;49286;44.460;26.114;2023-09-08T06:43:05;101114.59;;;21.49;94.66
63190;BME280;49286;44.460;26.114;2023-09-08T06:45:31;101206.53;;;21.95;94.56
63190;BME280;49286;44.460;26.114;2023-09-08T06:47:56;101129.69;;;21.77;93.65
63190;BME280;49286;44.460;26.114;2023-09-08T06:50:22;101196.75;;;22.19;92.50
63190;BME280;49286;44.460;26.114;2023-09-08T06:52:52;101114.25;;;21.85;91.50
63190;BME280;49286;44.460;26.114;2023-09-08T06:55:17;101109.88;;;22.07;89.80
63190;BME280;49286;44.460;26.114;2023-09-08T06:57:44;101204.66;;;22.72;89.35
63190;BME280;49286;44.460;26.114;2023-09-08T07:00:10;101189.75;;;22.65;88.70
63190;BME280;49286;44.460;26.114;2023-09-08T07:02:37;101107.31;;;22.04;89.89
63190;BME280;49286;44.460;26.114;2023-09-08T07:05:03;101136.13;;;22.21;92.44
63190;BME280;49286;44.460;26.114;2023-09-08T07:07:36;101107.91;;;22.12;92.57
63190;BME280;49286;44.460;26.114;2023-09-08T07:10:03;101206.97;;;22.82;92.19
63190;BME280;49286;44.460;26.114;2023-09-08T07:12:28;101211.38;;;22.83;91.29
63190;BME280;49286;44.460;26.114;2023-09-08T07:14:54;101202.44;;;22.60;91.24
63190;BME280;49286;44.460;26.114;2023-09-08T07:17:19;101190.22;;;22.53;93.76
63190;BME280;49286;44.460;26.114;2023-09-08T07:19:45;101110.50;;;22.39;93.20
63190;BME280;49286;44.460;26.114;2023-09-08T07:22:10;101152.69;;;22.54;89.77
63190;BME280;49286;44.460;26.114;2023-09-08T07:24:36;101191.50;;;22.90;89.37
63190;BME280;49286;44.460;26.114;2023-09-08T07:27:01;101108.88;;;22.35;89.94
63190;BME280;49286;44.460;26.114;2023-09-08T07:29:27;101110.91;;;22.52;89.57
63190;BME280;49286;44.460;26.114;2023-09-08T07:31:53;101183.34;;;23.16;88.87
63190;BME280;49286;44.460;26.114;2023-09-08T07:34:18;101195.13;;;23.34;89.49
63190;BME280;49286;44.460;26.114;2023-09-08T07:36:44;101198.09;;;23.93;88.88
63190;BME280;49286;44.460;26.114;2023-09-08T07:39:09;101129.19;;;22.86;86.85
63190;BME280;49286;44.460;26.114;2023-09-08T07:41:35;101181.56;;;23.39;85.76
63190;BME280;49286;44.460;26.114;2023-09-08T07:44:01;101209.81;;;23.68;90.44
63190;BME280;49286;44.460;26.114;2023-09-08T07:46:27;101119.47;;;23.50;87.57
63190;BME280;49286;44.460;26.114;2023-09-08T07:48:53;101203.50;;;23.69;89.64
63190;BME280;49286;44.460;26.114;2023-09-08T07:51:18;101200.44;;;24.00;87.36
63190;BME280;49286;44.460;26.114;2023-09-08T07:53:44;101123.13;;;23.27;87.29
63190;BME280;49286;44.460;26.114;2023-09-08T07:56:09;101119.63;;;23.47;90.35
63190;BME280;49286;44.460;26.114;2023-09-08T07:58:36;101188.31;;;23.70;90.50
63190;BME280;49286;44.460;26.114;2023-09-08T08:01:02;101110.34;;;23.33;93.86
63190;BME280;49286;44.460;26.114;2023-09-08T08:03:27;101184.47;;;24.18;91.87
63190;BME280;49286;44.460;26.114;2023-09-08T08:05:52;101178.91;;;23.82;94.18
63190;BME280;49286;44.460;26.114;2023-09-08T08:08:18;101152.97;;;23.82;93.09
63190;BME280;49286;44.460;26.114;2023-09-08T08:10:43;101178.63;;;24.29;90.43
63190;BME280;49286;44.460;26.114;2023-09-08T08:13:09;101082.56;;;23.56;93.46
63190;BME280;49286;44.460;26.114;2023-09-08T08:15:36;101116.06;;;23.67;93.00
63190;BME280;49286;44.460;26.114;2023-09-08T08:18:04;101114.78;;;23.55;95.65
63190;BME280;49286;44.460;26.114;2023-09-08T08:20:29;101180.53;;;24.66;90.93
63190;BME280;49286;44.460;26.114;2023-09-08T08:22:57;101195.25;;;24.76;89.57
63190;BME280;49286;44.460;26.114;2023-09-08T08:25:22;101113.28;;;24.30;86.28
63190;BME280;49286;44.460;26.114;2023-09-08T08:27:48;101192.94;;;24.88;85.46
63190;BME280;49286;44.460;26.114;2023-09-08T08:30:13;101102.88;;;24.23;78.82
63190;BME280;49286;44.460;26.114;2023-09-08T08:32:38;101120.63;;;24.26;75.11
63190;BME280;49286;44.460;26.114;2023-09-08T08:35:04;101108.34;;;24.20;73.33
63190;BME280;49286;44.460;26.114;2023-09-08T08:37:30;101183.28;;;24.44;69.02
63190;BME280;49286;44.460;26.114;2023-09-08T08:39:55;101200.25;;;24.84;72.00
63190;BME280;49286;44.460;26.114;2023-09-08T08:42:21;101150.38;;;24.40;67.36
63190;BME280;49286;44.460;26.114;2023-09-08T08:44:48;101205.50;;;24.87;66.01
63190;BME280;49286;44.460;26.114;2023-09-08T08:47:16;101195.19;;;24.97;65.22
63190;BME280;49286;44.460;26.114;2023-09-08T08:49:43;101207.63;;;25.18;63.67
63190;BME280;49286;44.460;26.114;2023-09-08T08:52:12;101149.25;;;24.65;61.39
63190;BME280;49286;44.460;26.114;2023-09-08T08:54:39;101185.84;;;24.87;60.55
63190;BME280;49286;44.460;26.114;2023-09-08T08:57:05;101207.97;;;24.73;59.82
63190;BME280;49286;44.460;26.114;2023-09-08T08:59:31;101108.25;;;24.42;58.76
63190;BME280;49286;44.460;26.114;2023-09-08T09:01:58;101159.44;;;24.77;57.99
63190;BME280;49286;44.460;26.114;2023-09-08T09:04:24;101110.50;;;24.33;59.32
63190;BME280;49286;44.460;26.114;2023-09-08T09:06:50;101200.13;;;24.68;58.96
63190;BME280;49286;44.460;26.114;2023-09-08T09:09:16;101174.72;;;24.75;59.11
63190;BME280;49286;44.460;26.114;2023-09-08T09:11:42;101207.53;;;24.82;58.05
63190;BME280;49286;44.460;26.114;2023-09-08T09:14:10;101191.63;;;24.96;56.63
63190;BME280;49286;44.460;26.114;2023-09-08T09:16:43;101204.78;;;25.21;55.49
63190;BME280;49286;44.460;26.114;2023-09-08T09:19:22;101186.41;;;25.31;56.33
63190;BME280;49286;44.460;26.114;2023-09-08T09:21:53;101206.72;;;25.37;54.86
63190;BME280;49286;44.460;26.114;2023-09-08T09:24:38;101210.66;;;25.11;54.43
63190;BME280;49286;44.460;26.114;2023-09-08T09:27:07;101195.34;;;25.32;54.40
63190;BME280;49286;44.460;26.114;2023-09-08T09:29:33;101198.69;;;25.54;54.93
63190;BME280;49286;44.460;26.114;2023-09-08T09:32:06;101194.31;;;25.88;53.38
63190;BME280;49286;44.460;26.114;2023-09-08T09:34:34;101106.53;;;25.16;52.32
63190;BME280;49286;44.460;26.114;2023-09-08T09:37:00;101125.19;;;25.19;52.18
63190;BME280;49286;44.460;26.114;2023-09-08T09:39:26;101118.19;;;24.78;52.67
63190;BME280;49286;44.460;26.114;2023-09-08T09:41:58;101166.22;;;25.03;52.74
63190;BME280;49286;44.460;26.114;2023-09-08T09:44:24;101184.25;;;25.20;52.67
63190;BME280;49286;44.460;26.114;2023-09-08T09:46:53;101153.41;;;24.91;52.24
63190;BME280;49286;44.460;26.114;2023-09-08T09:49:18;101124.59;;;25.12;52.70
63190;BME280;49286;44.460;26.114;2023-09-08T09:51:49;101151.16;;;25.37;52.57
63190;BME280;49286;44.460;26.114;2023-09-08T09:54:17;101145.50;;;25.43;51.95
63190;BME280;49286;44.460;26.114;2023-09-08T09:56:44;101169.91;;;25.56;51.83
63190;BME280;49286;44.460;26.114;2023-09-08T09:59:11;101161.16;;;25.53;52.13
63190;BME280;49286;44.460;26.114;2023-09-08T10:01:38;101123.75;;;25.65;52.01
63190;BME280;49286;44.460;26.114;2023-09-08T10:04:05;101179.34;;;26.17;50.56
63190;BME280;49286;44.460;26.114;2023-09-08T10:06:32;101095.75;;;25.87;51.40
63190;BME280;49286;44.460;26.114;2023-09-08T10:09:04;101079.81;;;25.66;49.63
63190;BME280;49286;44.460;26.114;2023-09-08T10:11:35;101144.97;;;26.40;49.57
63190;BME280;49286;44.460;26.114;2023-09-08T10:14:04;101084.94;;;26.22;49.75
63190;BME280;49286;44.460;26.114;2023-09-08T10:16:34;101167.47;;;26.88;49.28
63190;BME280;49286;44.460;26.114;2023-09-08T10:19:00;101085.19;;;25.66;48.88
63190;BME280;49286;44.460;26.114;2023-09-08T10:21:30;101118.09;;;26.22;48.47
63190;BME280;49286;44.460;26.114;2023-09-08T10:24:03;101069.63;;;26.06;48.22
63190;BME280;49286;44.460;26.114;2023-09-08T10:26:30;101159.69;;;27.13;47.46
63190;BME280;49286;44.460;26.114;2023-09-08T10:28:57;101166.50;;;27.36;46.73
63190;BME280;49286;44.460;26.114;2023-09-08T10:31:26;101175.09;;;26.46;47.30
63190;BME280;49286;44.460;26.114;2023-09-08T10:33:56;101169.59;;;26.32;47.54
63190;BME280;49286;44.460;26.114;2023-09-08T10:36:23;101152.22;;;26.04;47.08
63190;BME280;49286;44.460;26.114;2023-09-08T10:38:49;101167.78;;;26.32;46.93
63190;BME280;49286;44.460;26.114;2023-09-08T10:43:46;101076.09;;;27.15;44.55
63190;BME280;49286;44.460;26.114;2023-09-08T10:46:28;101152.78;;;26.44;45.61
63190;BME280;49286;44.460;26.114;2023-09-08T10:48:54;101069.59;;;25.90;45.93
63190;BME280;49286;44.460;26.114;2023-09-08T10:51:20;101141.47;;;27.19;45.56
63190;BME280;49286;44.460;26.114;2023-09-08T10:53:48;101147.19;;;28.19;43.99
63190;BME280;49286;44.460;26.114;2023-09-08T10:56:14;101154.03;;;28.25;43.38
63190;BME280;49286;44.460;26.114;2023-09-08T10:58:40;101153.56;;;28.47;42.71
63190;BME280;49286;44.460;26.114;2023-09-08T11:01:21;101146.75;;;27.36;43.72
63190;BME280;49286;44.460;26.114;2023-09-08T11:03:53;101077.22;;;26.31;44.07
63190;BME280;49286;44.460;26.114;2023-09-08T11:06:20;101151.47;;;27.93;42.55
63190;BME280;49286;44.460;26.114;2023-09-08T11:08:49;101149.88;;;28.05;47.11
63190;BME280;49286;44.460;26.114;2023-09-08T11:11:18;101144.19;;;28.09;44.58
63190;BME280;49286;44.460;26.114;2023-09-08T11:13:44;101095.69;;;26.71;45.66
63190;BME280;49286;44.460;26.114;2023-09-08T11:16:13;101132.34;;;26.73;43.79
63190;BME280;49286;44.460;26.114;2023-09-08T11:18:40;101035.78;;;26.02;44.36
63190;BME280;49286;44.460;26.114;2023-09-08T11:21:08;100969.84;;;26.59;43.95
63190;BME280;49286;44.460;26.114;2023-09-08T11:23:34;101029.91;;;27.37;43.17
63190;BME280;49286;44.460;26.114;2023-09-08T11:26:00;101115.38;;;27.65;42.09
63190;BME280;49286;44.460;26.114;2023-09-08T11:28:27;101097.63;;;26.36;42.49
63190;BME280;49286;44.460;26.114;2023-09-08T11:30:54;101054.13;;;26.11;43.04
63190;BME280;49286;44.460;26.114;2023-09-08T11:33:21;101026.19;;;25.63;42.92
63190;BME280;49286;44.460;26.114;2023-09-08T11:35:54;101019.44;;;26.39;41.99
63190;BME280;49286;44.460;26.114;2023-09-08T11:38:29;101098.59;;;27.30;41.91
63190;BME280;49286;44.460;26.114;2023-09-08T11:40:57;101042.47;;;27.22;40.81
63190;BME280;49286;44.460;26.114;2023-09-08T11:43:25;101118.22;;;26.37;41.23
63190;BME280;49286;44.460;26.114;2023-09-08T11:45:52;101027.19;;;25.78;41.45
63190;BME280;49286;44.460;26.114;2023-09-08T11:48:17;101020.81;;;25.63;41.61
63190;BME280;49286;44.460;26.114;2023-09-08T11:50:43;101022.63;;;25.80;40.69
63190;BME280;49286;44.460;26.114;2023-09-08T11:53:09;101026.31;;;26.60;40.85
63190;BME280;49286;44.460;26.114;2023-09-08T11:55:34;101014.91;;;26.39;39.36
63190;BME280;49286;44.460;26.114;2023-09-08T11:58:02;101083.56;;;26.30;39.42
63190;BME280;49286;44.460;26.114;2023-09-08T12:00:28;101109.34;;;26.84;39.67
63190;BME280;49286;44.460;26.114;2023-09-08T12:02:54;101079.00;;;26.80;38.31
63190;BME280;49286;44.460;26.114;2023-09-08T12:05:24;100998.91;;;26.52;38.00
63190;BME280;49286;44.460;26.114;2023-09-08T12:07:53;101087.19;;;26.63;37.48
63190;BME280;49286;44.460;26.114;2023-09-08T12:10:19;101064.81;;;26.29;37.56
63190;BME280;49286;44.460;26.114;2023-09-08T12:12:46;101042.00;;;26.52;37.40
63190;BME280;49286;44.460;26.114;2023-09-08T12:15:29;100986.53;;;26.65;37.82
63190;BME280;49286;44.460;26.114;2023-09-08T12:17:57;101056.91;;;27.21;37.25
63190;BME280;49286;44.460;26.114;2023-09-08T12:20:22;101056.06;;;27.05;37.16
63190;BME280;49286;44.460;26.114;2023-09-08T12:22:51;100968.19;;;26.40;37.46
63190;BME280;49286;44.460;26.114;2023-09-08T12:25:17;101055.63;;;26.97;36.87
63190;BME280;49286;44.460;26.114;2023-09-08T12:27:45;101073.47;;;26.83;36.85
63190;BME280;49286;44.460;26.114;2023-09-08T12:30:19;101034.72;;;26.54;36.66
63190;BME280;49286;44.460;26.114;2023-09-08T12:32:46;100981.97;;;25.86;37.28
63190;BME280;49286;44.460;26.114;2023-09-08T12:35:13;101010.84;;;26.64;37.45
63190;BME280;49286;44.460;26.114;2023-09-08T12:37:44;101045.81;;;26.32;36.29